La Porte, Minnesota
Current Conditions -  °F | °C
As of 10:35 AM on Saturday 22 Nov 2014 (Local Time) from KY49 Reporting Station
Clear Clear  
Wind Chill: 33°   Ceiling: Unl
Heat Index: 33°   Visibility: 10mi
Dew Point: 27°   Wind: 0mph
Humidity: 77%   Direction: NA
Pressure: 29.61"   Gusts: NA
Location:  47.2392°N, 94.7928°W
Report Text: KY49 221635Z AUTO 00000KT 10SM CLR 01/M03 A2961 RMK AO2 T00071030
Loading
Personal Weather Stations






























Interactive Weather Map New forecast layout! Learn more

10-Day Weather Forecast

Advertisements
Track Severe Weather on mobile